createdAt,value
2023-05-12T00:01:49.458Z,106.03
2023-05-12T00:04:16.013Z,93.27
2023-05-12T00:06:42.549Z,96.63
2023-05-12T00:09:09.584Z,86.27
2023-05-12T00:11:39.250Z,83.50
2023-05-12T00:14:06.303Z,81.83
2023-05-12T00:16:32.952Z,79.60
2023-05-12T00:18:59.648Z,79.97
2023-05-12T00:21:26.451Z,80.87
2023-05-12T00:23:52.967Z,75.73
2023-05-12T00:26:19.477Z,71.87
2023-05-12T00:28:47.297Z,72.53
2023-05-12T00:31:13.885Z,72.17
2023-05-12T00:33:41.040Z,67.47
2023-05-12T00:36:08.201Z,73.87
2023-05-12T00:38:34.747Z,79.57
2023-05-12T00:41:01.599Z,71.77
2023-05-12T00:43:29.137Z,79.23
2023-05-12T00:45:56.775Z,75.07
2023-05-12T00:48:23.615Z,71.33
2023-05-12T00:50:50.145Z,69.73
2023-05-12T00:53:16.862Z,70.07
2023-05-12T00:55:44.261Z,66.93
2023-05-12T00:58:10.836Z,68.43
2023-05-12T01:00:37.397Z,65.67
2023-05-12T01:03:04.691Z,68.80
2023-05-12T01:05:39.156Z,59.23
2023-05-12T01:08:06.347Z,64.60
2023-05-12T01:10:33.118Z,57.10
2023-05-12T01:12:59.628Z,63.57
2023-05-12T01:15:26.518Z,59.07
2023-05-12T01:17:57.803Z,55.43
2023-05-12T01:20:27.678Z,56.17
2023-05-12T01:22:55.385Z,54.33
2023-05-12T01:25:26.728Z,49.13
2023-05-12T01:27:54.255Z,52.97
2023-05-12T01:30:23.083Z,52.07
2023-05-12T01:32:51.213Z,52.50
2023-05-12T01:35:18.074Z,54.73
2023-05-12T01:37:45.583Z,63.27
2023-05-12T01:40:12.394Z,59.33
2023-05-12T01:42:42.642Z,58.97
2023-05-12T01:45:09.948Z,57.53
2023-05-12T01:47:36.552Z,59.80
2023-05-12T01:50:03.315Z,56.37
2023-05-12T01:52:29.811Z,56.03
2023-05-12T01:54:56.343Z,45.77
2023-05-12T01:57:22.879Z,48.17
2023-05-12T01:59:49.413Z,44.07
2023-05-12T02:02:16.161Z,50.27
2023-05-12T02:04:43.116Z,62.87
2023-05-12T02:07:10.358Z,57.50
2023-05-12T02:09:36.903Z,55.67
2023-05-12T02:12:04.197Z,49.03
2023-05-12T02:14:30.705Z,44.00
2023-05-12T02:16:57.292Z,43.07
2023-05-12T02:19:23.800Z,45.83
2023-05-12T02:21:50.367Z,57.20
2023-05-12T02:24:17.148Z,50.90
2023-05-12T02:26:43.688Z,56.27
2023-05-12T02:29:11.042Z,52.37
2023-05-12T02:31:37.705Z,54.10
2023-05-12T02:34:06.611Z,51.87
2023-05-12T02:36:33.472Z,59.37
2023-05-12T02:39:00.041Z,56.20
2023-05-12T02:41:26.616Z,41.23
2023-05-12T02:43:53.592Z,38.10
2023-05-12T02:46:20.284Z,38.50
2023-05-12T02:48:47.116Z,42.33
2023-05-12T02:51:13.623Z,35.23
2023-05-12T02:53:40.399Z,40.57
2023-05-12T02:56:07.774Z,36.40
2023-05-12T02:58:34.674Z,33.30
2023-05-12T03:01:10.094Z,36.20
2023-05-12T03:03:38.086Z,32.17
2023-05-12T03:06:05.895Z,29.57
2023-05-12T03:08:32.809Z,31.70
2023-05-12T03:10:59.547Z,25.97
2023-05-12T03:13:26.305Z,22.13
2023-05-12T03:15:52.873Z,17.67
2023-05-12T03:18:19.576Z,18.27
2023-05-12T03:20:46.821Z,19.00
2023-05-12T03:23:13.391Z,16.43
2023-05-12T03:25:40.140Z,15.50
2023-05-12T03:28:06.767Z,16.93
2023-05-12T03:30:33.310Z,17.10
2023-05-12T03:32:59.972Z,14.30
2023-05-12T03:35:26.820Z,16.57
2023-05-12T03:37:53.429Z,11.70
2023-05-12T03:40:20.210Z,13.47
2023-05-12T03:42:47.136Z,15.83
2023-05-12T03:45:13.743Z,15.23
2023-05-12T03:47:40.555Z,13.07
2023-05-12T03:50:08.133Z,16.00
2023-05-12T03:52:34.966Z,15.07
2023-05-12T03:55:01.551Z,17.10
2023-05-12T03:57:28.745Z,16.03
2023-05-12T03:59:55.651Z,17.53
2023-05-12T04:02:22.381Z,12.30
2023-05-12T04:04:48.964Z,14.67
2023-05-12T04:07:15.473Z,10.97
2023-05-12T04:09:43.840Z,12.47
2023-05-12T04:12:10.849Z,11.60
2023-05-12T04:14:42.934Z,11.17
2023-05-12T04:17:10.807Z,12.60
2023-05-12T04:19:37.309Z,13.03
2023-05-12T04:22:03.953Z,10.43
2023-05-12T04:24:31.096Z,10.93
2023-05-12T04:26:57.843Z,9.50
2023-05-12T04:29:24.392Z,9.83
2023-05-12T04:31:50.917Z,9.33
2023-05-12T04:34:17.440Z,9.13
2023-05-12T04:36:43.975Z,9.63
2023-05-12T04:39:10.465Z,10.63
2023-05-12T04:41:36.970Z,8.07
2023-05-12T04:44:03.545Z,9.30
2023-05-12T04:46:30.284Z,10.53
2023-05-12T04:48:56.908Z,9.13
2023-05-12T04:51:23.448Z,11.07
2023-05-12T04:53:49.963Z,9.83
2023-05-12T04:56:16.937Z,10.07
2023-05-12T04:58:43.496Z,10.73
2023-05-12T05:01:12.080Z,11.10
2023-05-12T05:03:39.587Z,9.87
2023-05-12T05:06:06.568Z,9.93
2023-05-12T05:08:33.438Z,9.20
2023-05-12T05:10:59.971Z,9.40
2023-05-12T05:13:26.666Z,10.30
2023-05-12T05:15:54.132Z,9.43
2023-05-12T05:18:23.857Z,10.47
2023-05-12T05:20:57.968Z,8.40
2023-05-12T05:23:26.114Z,10.20
2023-05-12T05:25:53.065Z,9.93
2023-05-12T05:28:19.578Z,10.47
2023-05-12T05:30:46.082Z,9.33
2023-05-12T05:33:13.127Z,8.97
2023-05-12T05:35:40.025Z,10.43
2023-05-12T05:38:06.692Z,9.93
2023-05-12T05:40:44.886Z,12.43
2023-05-12T05:43:18.525Z,13.43
2023-05-12T05:45:45.311Z,14.93
2023-05-12T05:48:12.290Z,15.17
2023-05-12T05:50:38.903Z,17.43
2023-05-12T05:53:05.976Z,21.57
2023-05-12T05:55:32.519Z,21.03
2023-05-12T05:57:59.019Z,19.87
2023-05-12T06:00:25.534Z,19.97
2023-05-12T06:02:52.120Z,21.63
2023-05-12T06:05:19.251Z,18.47
2023-05-12T06:07:46.004Z,20.53
2023-05-12T06:10:12.612Z,17.23
2023-05-12T06:12:40.716Z,18.33
2023-05-12T06:15:08.336Z,16.07
2023-05-12T06:17:35.169Z,14.70
2023-05-12T06:20:02.048Z,14.43
2023-05-12T06:22:28.660Z,11.87
2023-05-12T06:24:55.147Z,9.90
2023-05-12T06:27:22.028Z,9.93
2023-05-12T06:29:48.995Z,8.50
2023-05-12T06:32:15.569Z,8.03
2023-05-12T06:34:42.148Z,8.10
2023-05-12T06:37:08.729Z,7.63
2023-05-12T06:39:35.682Z,10.17
2023-05-12T06:42:02.247Z,7.20
2023-05-12T06:44:28.736Z,8.13
2023-05-12T06:46:55.371Z,7.27
2023-05-12T06:49:22.142Z,6.60
2023-05-12T06:51:48.658Z,6.10
2023-05-12T06:54:15.268Z,6.77
2023-05-12T06:56:41.794Z,9.23
2023-05-12T06:59:08.318Z,7.27
2023-05-12T07:01:34.951Z,6.20
2023-05-12T07:04:01.518Z,6.17
2023-05-12T07:06:28.140Z,6.53
2023-05-12T07:08:55.807Z,6.10
2023-05-12T07:11:22.883Z,6.33
2023-05-12T07:13:50.586Z,6.37
2023-05-12T07:16:18.823Z,6.17
2023-05-12T07:18:46.163Z,5.83
2023-05-12T07:21:13.197Z,6.73
2023-05-12T07:23:40.462Z,5.77
2023-05-12T07:26:07.564Z,6.10
2023-05-12T07:28:38.070Z,5.93
2023-05-12T07:31:07.040Z,5.60
2023-05-12T07:33:34.950Z,6.00
2023-05-12T07:36:02.510Z,6.53
2023-05-12T07:38:29.140Z,6.57
2023-05-12T07:40:55.770Z,7.13
2023-05-12T07:43:22.327Z,5.97
2023-05-12T07:45:48.877Z,6.23
2023-05-12T07:48:15.607Z,6.70
2023-05-12T07:50:42.189Z,6.33
2023-05-12T07:53:08.862Z,6.13
2023-05-12T07:55:35.612Z,6.73
2023-05-12T07:58:02.355Z,8.00
2023-05-12T08:00:29.112Z,8.63
2023-05-12T08:02:55.785Z,6.23
2023-05-12T08:05:22.711Z,8.03
2023-05-12T08:07:49.272Z,6.30
2023-05-12T08:10:15.844Z,6.10
2023-05-12T08:12:42.819Z,6.80
2023-05-12T08:15:09.742Z,6.30
2023-05-12T08:17:36.616Z,6.40
2023-05-12T08:20:04.337Z,5.40
2023-05-12T08:22:31.367Z,5.60
2023-05-12T08:24:57.947Z,7.93
2023-05-12T08:27:24.506Z,5.83
2023-05-12T08:29:51.044Z,6.33
2023-05-12T08:32:17.646Z,5.00
2023-05-12T08:34:44.167Z,4.70
2023-05-12T08:37:11.564Z,5.40
2023-05-12T08:39:38.329Z,5.10
2023-05-12T08:42:13.276Z,4.90
2023-05-12T08:44:40.680Z,6.13
2023-05-12T08:47:08.396Z,5.03
2023-05-12T08:49:36.339Z,4.90
2023-05-12T08:52:03.541Z,7.57
2023-05-12T08:54:30.647Z,5.17
2023-05-12T08:59:26.993Z,6.33
2023-05-12T09:01:55.342Z,4.77
2023-05-12T09:04:22.513Z,4.80
2023-05-12T09:06:49.168Z,5.00
2023-05-12T09:09:17.321Z,4.60
2023-05-12T09:11:45.053Z,4.80
2023-05-12T09:14:18.841Z,4.43
2023-05-12T09:16:49.071Z,5.07
2023-05-12T09:19:20.887Z,4.90
2023-05-12T09:21:48.557Z,5.20
2023-05-12T09:24:15.412Z,5.40
2023-05-12T09:26:48.992Z,5.37
2023-05-12T09:29:30.805Z,4.93
2023-05-12T09:32:00.728Z,5.37
2023-05-12T09:34:38.403Z,5.10
2023-05-12T09:37:06.853Z,5.03
2023-05-12T09:39:34.405Z,5.37
2023-05-12T09:42:01.127Z,4.57
2023-05-12T09:44:30.564Z,4.68
2023-05-12T09:47:07.033Z,5.90
2023-05-12T09:49:33.581Z,4.85
2023-05-12T09:52:00.246Z,4.70
2023-05-12T09:54:28.366Z,4.85
2023-05-12T09:57:00.079Z,6.50
2023-05-12T09:59:38.393Z,5.35
2023-05-12T10:02:08.557Z,4.10
2023-05-12T10:04:49.990Z,4.60
2023-05-12T10:07:18.243Z,7.15
2023-05-12T10:09:45.440Z,4.57
2023-05-12T10:12:12.931Z,4.57
2023-05-12T10:14:40.958Z,5.10
2023-05-12T10:17:09.374Z,4.75
2023-05-12T10:19:36.134Z,4.70
2023-05-12T10:22:03.800Z,4.20
2023-05-12T10:24:30.370Z,5.38
2023-05-12T10:26:57.449Z,4.25
2023-05-12T10:29:29.480Z,4.57
2023-05-12T10:31:57.416Z,3.83
2023-05-12T10:34:29.624Z,4.30
2023-05-12T10:36:58.517Z,5.50
2023-05-12T10:39:29.749Z,3.97
2023-05-12T10:42:07.244Z,3.90
2023-05-12T10:44:34.503Z,4.13
2023-05-12T10:47:01.039Z,3.70
2023-05-12T10:49:38.826Z,3.78
2023-05-12T10:52:06.112Z,4.00
2023-05-12T10:54:39.988Z,4.10
2023-05-12T10:57:18.873Z,4.20
2023-05-12T10:59:57.579Z,3.60
2023-05-12T11:02:28.323Z,3.83
2023-05-12T11:04:58.311Z,3.25
2023-05-12T11:07:30.845Z,3.10
2023-05-12T11:10:01.478Z,3.22
2023-05-12T11:12:37.041Z,3.40
2023-05-12T11:15:05.764Z,3.40
2023-05-12T11:17:32.920Z,4.35
2023-05-12T11:20:01.274Z,3.20
2023-05-12T11:22:28.410Z,7.03
2023-05-12T11:24:55.116Z,3.10
2023-05-12T11:27:23.470Z,4.18
2023-05-12T11:30:02.486Z,3.97
2023-05-12T11:32:30.023Z,2.95
2023-05-12T11:35:09.558Z,3.95
2023-05-12T11:37:40.688Z,3.22
2023-05-12T11:40:27.594Z,5.00
2023-05-12T11:42:55.661Z,4.07
2023-05-12T11:45:23.582Z,3.00
2023-05-12T11:47:50.542Z,4.63
2023-05-12T11:50:22.725Z,4.82
2023-05-12T11:52:50.415Z,3.20
2023-05-12T11:55:22.639Z,3.78
2023-05-12T11:58:03.071Z,5.55
2023-05-12T12:00:34.629Z,3.60
2023-05-12T12:03:12.756Z,4.10
2023-05-12T12:05:40.857Z,4.07
2023-05-12T12:08:13.211Z,5.75
2023-05-12T12:10:44.349Z,4.85
2023-05-12T12:13:11.410Z,5.53
2023-05-12T12:15:38.181Z,5.97
2023-05-12T12:18:05.116Z,6.00
2023-05-12T12:20:31.834Z,3.80
2023-05-12T12:22:58.487Z,3.83
2023-05-12T12:25:25.905Z,5.28
2023-05-12T12:27:52.929Z,3.13
2023-05-12T12:30:19.676Z,3.50
2023-05-12T12:32:46.353Z,5.70
2023-05-12T12:35:13.328Z,4.40
2023-05-12T12:37:40.692Z,5.75
2023-05-12T12:40:08.245Z,4.22
2023-05-12T12:42:36.410Z,4.50
2023-05-12T12:45:05.010Z,9.63
2023-05-12T12:47:32.019Z,4.72
2023-05-12T12:49:59.569Z,5.07
2023-05-12T12:52:26.255Z,4.30
2023-05-12T12:54:52.898Z,4.70
2023-05-12T12:57:20.861Z,4.13
2023-05-12T12:59:47.540Z,5.53
2023-05-12T13:02:14.282Z,5.10
2023-05-12T13:04:40.868Z,6.35
2023-05-12T13:07:07.849Z,4.47
2023-05-12T13:09:34.376Z,4.40
2023-05-12T13:12:01.125Z,4.97
2023-05-12T13:14:27.766Z,5.95
2023-05-12T13:16:54.354Z,4.55
2023-05-12T13:19:21.606Z,4.15
2023-05-12T13:21:48.337Z,6.50
2023-05-12T13:24:14.919Z,9.05
2023-05-12T13:26:41.483Z,7.10
2023-05-12T13:29:08.022Z,4.40
2023-05-12T13:31:34.711Z,4.18
2023-05-12T13:34:01.423Z,4.72
2023-05-12T13:36:28.458Z,5.85
2023-05-12T13:38:55.261Z,4.00
2023-05-12T13:41:21.837Z,6.88
2023-05-12T13:43:48.443Z,5.15
2023-05-12T13:46:15.054Z,6.03
2023-05-12T13:48:41.804Z,5.63
2023-05-12T13:51:08.482Z,9.80
2023-05-12T13:53:38.270Z,6.30
2023-05-12T13:56:05.251Z,4.68
2023-05-12T13:58:31.856Z,6.65
2023-05-12T14:00:58.456Z,6.95
2023-05-12T14:03:24.981Z,6.68
2023-05-12T14:05:51.510Z,4.68
2023-05-12T14:08:18.109Z,5.85
2023-05-12T14:10:44.950Z,4.53
2023-05-12T14:13:12.544Z,5.30
2023-05-12T14:15:48.637Z,4.88
2023-05-12T14:18:16.227Z,5.30
2023-05-12T14:20:42.918Z,5.10
2023-05-12T14:23:09.589Z,5.20
2023-05-12T14:25:36.236Z,4.28
2023-05-12T14:28:03.473Z,5.40
2023-05-12T14:30:30.256Z,5.97
2023-05-12T14:32:57.107Z,3.95
2023-05-12T14:35:27.259Z,4.63
2023-05-12T14:37:53.983Z,8.18
2023-05-12T14:40:21.019Z,4.32
2023-05-12T14:42:47.861Z,8.38
2023-05-12T14:45:14.649Z,11.18
2023-05-12T14:47:41.428Z,5.95
2023-05-12T14:50:08.393Z,5.40
2023-05-12T14:52:38.198Z,5.38
2023-05-12T14:55:11.273Z,6.75
2023-05-12T14:57:41.710Z,6.25
2023-05-12T15:00:10.735Z,5.30
2023-05-12T15:02:38.419Z,6.15
2023-05-12T15:05:07.034Z,5.40
2023-05-12T15:07:33.918Z,7.43
2023-05-12T15:10:00.872Z,4.88
2023-05-12T15:12:27.604Z,5.28
2023-05-12T15:14:55.917Z,6.05
2023-05-12T15:17:22.660Z,5.38
2023-05-12T15:19:49.151Z,6.50
2023-05-12T15:22:15.671Z,8.77
2023-05-12T15:24:42.988Z,5.15
2023-05-12T15:27:09.530Z,5.18
2023-05-12T15:29:42.323Z,4.30
2023-05-12T15:32:08.879Z,4.07
2023-05-12T15:34:35.709Z,5.43
2023-05-12T15:37:02.333Z,4.88
2023-05-12T15:39:28.957Z,4.65
2023-05-12T15:41:55.587Z,4.90
2023-05-12T15:44:22.112Z,6.22
2023-05-12T15:46:48.713Z,4.72
2023-05-12T15:49:15.371Z,4.60
2023-05-12T15:51:41.982Z,7.15
2023-05-12T15:54:09.531Z,7.35
2023-05-12T15:56:37.174Z,6.38
2023-05-12T15:59:05.041Z,5.30
2023-05-12T16:01:31.855Z,5.47
2023-05-12T16:03:58.696Z,4.80
2023-05-12T16:06:25.495Z,7.38
2023-05-12T16:08:53.023Z,7.20
2023-05-12T16:11:19.696Z,5.18
2023-05-12T16:13:46.400Z,8.45
2023-05-12T16:16:13.055Z,7.78
2023-05-12T16:18:40.489Z,5.90
2023-05-12T16:21:08.143Z,8.25
2023-05-12T16:23:35.003Z,9.95
2023-05-12T16:26:01.578Z,11.10
2023-05-12T16:28:28.348Z,6.90
2023-05-12T16:30:54.891Z,6.82
2023-05-12T16:33:21.401Z,5.55
2023-05-12T16:35:47.944Z,5.93
2023-05-12T16:38:14.578Z,7.90
2023-05-12T16:40:41.167Z,12.57
2023-05-12T16:43:07.884Z,7.80
2023-05-12T16:45:34.414Z,5.78
2023-05-12T16:48:01.031Z,7.05
2023-05-12T16:50:27.636Z,7.95
2023-05-12T16:52:54.277Z,5.40
2023-05-12T16:55:21.502Z,4.82
2023-05-12T16:57:48.364Z,5.55
2023-05-12T17:00:15.437Z,4.95
2023-05-12T17:02:42.279Z,4.57
2023-05-12T17:05:09.145Z,4.20
2023-05-12T17:07:35.772Z,8.95
2023-05-12T17:10:03.282Z,5.82
2023-05-12T17:12:29.820Z,4.13
2023-05-12T17:15:06.860Z,6.65
2023-05-12T17:17:34.819Z,4.43
2023-05-12T17:20:02.242Z,4.30
2023-05-12T17:22:29.047Z,7.30
2023-05-12T17:24:55.572Z,6.22
2023-05-12T17:27:22.103Z,5.90
2023-05-12T17:29:48.713Z,5.72
2023-05-12T17:32:15.264Z,7.63
2023-05-12T17:34:41.777Z,5.45
2023-05-12T17:37:08.305Z,5.75
2023-05-12T17:39:34.835Z,6.50
2023-05-12T17:42:01.535Z,6.20
2023-05-12T17:44:28.181Z,6.00
2023-05-12T17:46:54.807Z,5.30
2023-05-12T17:49:21.429Z,7.78
2023-05-12T17:51:49.266Z,6.68
2023-05-12T17:54:15.829Z,6.43
2023-05-12T17:56:44.523Z,7.03
2023-05-12T17:59:12.212Z,6.40
2023-05-12T18:01:39.262Z,6.20
2023-05-12T18:04:05.806Z,6.97
2023-05-12T18:06:33.042Z,6.80
2023-05-12T18:08:59.608Z,7.87
2023-05-12T18:11:26.153Z,7.73
2023-05-12T18:13:53.628Z,6.93
2023-05-12T18:16:28.374Z,10.57
2023-05-12T18:18:55.859Z,6.83
2023-05-12T18:21:22.488Z,6.30
2023-05-12T18:23:49.362Z,5.90
2023-05-12T18:26:15.876Z,6.27
2023-05-12T18:28:42.506Z,6.30
2023-05-12T18:31:15.913Z,8.57
2023-05-12T18:33:45.660Z,6.53
2023-05-12T18:36:12.408Z,6.00
2023-05-12T18:38:39.073Z,6.67
2023-05-12T18:41:05.664Z,5.90
2023-05-12T18:43:32.298Z,6.77
2023-05-12T18:45:58.875Z,6.37
2023-05-12T18:48:25.980Z,6.23
2023-05-12T18:50:52.776Z,6.27
2023-05-12T18:53:19.312Z,6.87
2023-05-12T18:55:45.864Z,8.70
2023-05-12T18:58:12.415Z,6.70
2023-05-12T19:00:39.042Z,6.70
2023-05-12T19:03:05.696Z,8.80
2023-05-12T19:05:32.348Z,6.47
2023-05-12T19:07:59.137Z,9.10
2023-05-12T19:10:26.676Z,7.40
2023-05-12T19:12:53.327Z,8.33
2023-05-12T19:15:21.359Z,7.27
2023-05-12T19:17:49.166Z,7.77
2023-05-12T19:20:15.766Z,7.73
2023-05-12T19:22:42.443Z,8.10
2023-05-12T19:25:09.316Z,8.17
2023-05-12T19:27:35.937Z,10.07
2023-05-12T19:30:04.870Z,8.97
2023-05-12T19:32:32.658Z,9.37
2023-05-12T19:35:00.725Z,8.90
2023-05-12T19:37:27.681Z,9.00
2023-05-12T19:39:54.226Z,10.27
2023-05-12T19:42:21.292Z,9.13
2023-05-12T19:44:48.067Z,10.57
2023-05-12T19:47:14.817Z,10.83
2023-05-12T19:49:41.647Z,9.50
2023-05-12T19:52:08.372Z,8.43
2023-05-12T19:54:34.988Z,10.50
2023-05-12T19:57:01.975Z,9.30
2023-05-12T19:59:28.597Z,9.53
2023-05-12T20:01:55.220Z,10.20
2023-05-12T20:04:22.680Z,11.30
2023-05-12T20:06:49.340Z,11.30
2023-05-12T20:09:15.957Z,9.13
2023-05-12T20:11:42.502Z,9.37
2023-05-12T20:14:09.089Z,11.53
2023-05-12T20:16:35.668Z,10.77
2023-05-12T20:19:02.975Z,8.90
2023-05-12T20:21:31.269Z,9.77
2023-05-12T20:23:57.800Z,11.43
2023-05-12T20:26:24.488Z,10.87
2023-05-12T20:28:51.192Z,13.83
2023-05-12T20:31:18.470Z,9.30
2023-05-12T20:33:45.105Z,9.73
2023-05-12T20:36:11.818Z,13.50
2023-05-12T20:38:38.732Z,12.00
2023-05-12T20:41:06.163Z,12.77
2023-05-12T20:43:33.198Z,11.73
2023-05-12T20:46:02.468Z,11.17
2023-05-12T20:48:29.085Z,14.00
2023-05-12T20:50:56.363Z,12.90
2023-05-12T20:53:23.161Z,12.50
2023-05-12T20:55:49.792Z,13.13
2023-05-12T20:58:16.515Z,12.93
2023-05-12T21:00:43.068Z,12.70
2023-05-12T21:03:14.289Z,13.63
2023-05-12T21:05:41.876Z,12.23
2023-05-12T21:08:08.407Z,13.07
2023-05-12T21:10:39.100Z,13.27
2023-05-12T21:13:07.270Z,14.97
2023-05-12T21:15:33.800Z,14.57
2023-05-12T21:18:00.515Z,14.00
2023-05-12T21:20:27.396Z,12.07
2023-05-12T21:22:56.676Z,13.40
2023-05-12T21:25:23.862Z,11.33
2023-05-12T21:27:50.444Z,13.47
2023-05-12T21:30:17.295Z,12.50
2023-05-12T21:32:44.124Z,11.60
2023-05-12T21:35:11.121Z,15.87
2023-05-12T21:37:38.239Z,11.60
2023-05-12T21:40:05.462Z,12.50
2023-05-12T21:42:32.028Z,11.97
2023-05-12T21:44:58.607Z,11.97
2023-05-12T21:47:25.609Z,17.83
2023-05-12T21:49:55.953Z,12.10
2023-05-12T21:52:23.370Z,11.63
2023-05-12T21:54:49.960Z,12.17
2023-05-12T21:57:16.827Z,11.97
2023-05-12T21:59:43.339Z,16.87
2023-05-12T22:02:10.019Z,13.50
2023-05-12T22:04:36.684Z,13.03
2023-05-12T22:07:03.233Z,14.53
2023-05-12T22:09:31.197Z,17.00
2023-05-12T22:11:57.954Z,17.10
2023-05-12T22:14:24.725Z,15.37
2023-05-12T22:16:51.287Z,14.93
2023-05-12T22:19:18.204Z,14.47
2023-05-12T22:21:45.492Z,15.20
2023-05-12T22:24:12.005Z,15.00
2023-05-12T22:26:38.651Z,15.67
2023-05-12T22:29:05.153Z,16.77
2023-05-12T22:31:31.749Z,20.67
2023-05-12T22:33:58.340Z,16.20
2023-05-12T22:36:24.935Z,15.93
2023-05-12T22:38:51.738Z,17.33
2023-05-12T22:41:18.263Z,16.43
2023-05-12T22:43:44.860Z,25.07
2023-05-12T22:46:11.441Z,16.70
2023-05-12T22:48:39.400Z,20.20
2023-05-12T22:51:06.513Z,22.10
2023-05-12T22:53:35.556Z,18.30
2023-05-12T22:56:02.999Z,20.20
2023-05-12T22:58:30.023Z,17.97
2023-05-12T23:00:56.621Z,20.20
2023-05-12T23:03:23.349Z,20.27
2023-05-12T23:05:49.861Z,21.70
2023-05-12T23:08:16.372Z,22.17
2023-05-12T23:10:42.876Z,31.37
2023-05-12T23:13:09.448Z,21.77
2023-05-12T23:15:36.064Z,21.27
2023-05-12T23:18:02.635Z,24.20
2023-05-12T23:20:29.203Z,22.50
2023-05-12T23:22:56.420Z,23.63
2023-05-12T23:25:23.084Z,21.77
2023-05-12T23:27:49.677Z,24.20
2023-05-12T23:30:16.333Z,23.73
2023-05-12T23:32:42.960Z,27.13
2023-05-12T23:35:09.937Z,24.87
2023-05-12T23:37:36.488Z,24.47
2023-05-12T23:40:03.888Z,25.83
2023-05-12T23:42:30.422Z,27.07
2023-05-12T23:44:56.985Z,27.63
2023-05-12T23:47:23.580Z,24.93
2023-05-12T23:49:50.365Z,26.17
2023-05-12T23:52:16.883Z,32.80
2023-05-12T23:54:43.611Z,26.57
2023-05-12T23:57:10.285Z,28.30
2023-05-12T23:59:36.861Z,25.70
